Time;durP1;ratioP1;P1;durP2;ratioP2;P2;SDS_P1;SDS_P2;PMS_P1;PMS_P2;Temp;Humidity;BMP_temperature;BMP_pressure;BME280_temperature;BME280_humidity;BME280_pressure;Samples;Min_cycle;Max_cycle;Signal;HPM_P1;HPM_P2
2021/12/22 00:01:31;;;;;;;17.38;11.70;;;0.00;99.90;;;;;;4869285;29;20044;-79
2021/12/22 00:03:58;;;;;;;22.15;11.55;;;-1.50;99.90;;;;;;4892640;29;20510;-79
2021/12/22 00:06:26;;;;;;;18.10;11.13;;;-1.00;99.90;;;;;;4902580;29;20056;-79
2021/12/22 00:08:52;;;;;;;16.60;10.93;;;-1.50;99.90;;;;;;4909239;29;20056;-79
2021/12/22 00:11:18;;;;;;;14.40;9.95;;;-0.50;99.90;;;;;;4908412;29;20052;-79
2021/12/22 00:13:45;;;;;;;15.23;10.80;;;-0.30;99.90;;;;;;4908564;29;20063;-80
2021/12/22 00:16:10;;;;;;;17.13;10.48;;;-0.10;99.90;;;;;;4908422;29;20092;-79
2021/12/22 00:18:37;;;;;;;15.70;10.10;;;-1.60;99.90;;;;;;4907579;29;20048;-80
2021/12/22 00:21:03;;;;;;;16.45;10.98;;;-0.60;99.90;;;;;;4907436;29;20423;-79
2021/12/22 00:23:29;;;;;;;15.73;10.35;;;-1.60;99.90;;;;;;4907599;29;20055;-78
2021/12/22 00:25:55;;;;;;;16.77;10.60;;;-0.50;99.90;;;;;;4893700;29;20513;-77
2021/12/22 00:28:21;;;;;;;15.23;10.32;;;-0.10;99.90;;;;;;4917418;29;20051;-78
2021/12/22 00:30:47;;;;;;;16.83;10.48;;;-1.60;99.90;;;;;;4908361;29;20056;-78
2021/12/22 00:33:13;;;;;;;14.35;10.05;;;-1.30;99.90;;;;;;4907348;29;20474;-78
2021/12/22 00:35:45;;;;;;;17.00;10.13;;;-0.20;99.90;;;;;;4892775;29;20049;-77
2021/12/22 00:38:20;;;;;;;13.98;9.52;;;-0.20;99.90;;;;;;4907891;29;20044;-78
2021/12/22 00:40:47;;;;;;;16.95;9.90;;;-1.10;99.90;;;;;;4907243;29;20052;-78
2021/12/22 00:43:14;;;;;;;15.93;9.75;;;-0.10;99.90;;;;;;4901078;29;20052;-78
2021/12/22 00:45:41;;;;;;;15.88;9.85;;;-1.70;99.90;;;;;;4908443;29;20060;-78
2021/12/22 00:48:09;;;;;;;15.05;9.38;;;-1.80;99.90;;;;;;4895498;29;20478;-78
2021/12/22 00:50:37;;;;;;;14.32;9.68;;;-1.80;99.90;;;;;;4904864;29;20059;-78
2021/12/22 00:53:03;;;;;;;14.07;8.57;;;-1.80;99.90;;;;;;4894862;29;20055;-78
2021/12/22 00:55:29;;;;;;;15.57;8.70;;;-1.80;99.90;;;;;;4896343;29;20542;-77
2021/12/22 00:57:55;;;;;;;15.43;10.05;;;-0.10;99.90;;;;;;4895506;29;20048;-78
2021/12/22 01:00:24;;;;;;;13.15;9.20;;;-1.90;99.90;;;;;;4910928;29;20044;-78
2021/12/22 01:02:50;;;;;;;12.95;8.52;;;-0.50;99.90;;;;;;4905481;29;20056;-78
2021/12/22 01:05:17;;;;;;;12.70;8.60;;;-0.60;99.90;;;;;;4894214;29;20048;-78
2021/12/22 01:07:45;;;;;;;13.32;9.32;;;-2.00;99.90;;;;;;4895897;29;20059;-79
2021/12/22 01:10:12;;;;;;;12.27;8.15;;;-2.00;99.90;;;;;;4926067;29;20052;-77
2021/12/22 01:12:38;;;;;;;14.82;9.63;;;-0.30;99.90;;;;;;4910878;29;20075;-78
2021/12/22 01:15:06;;;;;;;14.43;8.50;;;-2.00;99.90;;;;;;4910916;29;20100;-79
2021/12/22 01:17:38;;;;;;;12.73;8.13;;;-2.10;99.90;;;;;;4910788;29;20044;-78
2021/12/22 01:20:16;;;;;;;18.15;8.98;;;-1.40;99.90;;;;;;4911500;29;20052;-79
2021/12/22 01:25:11;;;;;;;15.43;8.98;;;-0.30;99.90;;;;;;4909468;29;20048;-79
2021/12/22 01:27:41;;;;;;;15.77;9.38;;;-2.00;99.90;;;;;;4927098;29;20059;-79
2021/12/22 01:30:14;;;;;;;12.93;8.07;;;-1.40;99.90;;;;;;4910899;29;20067;-80
2021/12/22 01:32:41;;;;;;;12.38;8.43;;;-2.00;99.90;;;;;;4910905;29;20062;-79
2021/12/22 01:35:10;;;;;;;12.82;8.27;;;-0.70;99.90;;;;;;4910684;29;20055;-80
2021/12/22 01:37:37;;;;;;;13.50;8.80;;;-2.10;99.90;;;;;;4907356;29;20063;-80
2021/12/22 01:40:05;;;;;;;13.77;8.90;;;-2.10;99.90;;;;;;4895184;29;20142;-80
2021/12/22 01:42:30;;;;;;;11.73;8.32;;;-2.10;99.90;;;;;;4908802;29;20052;-80
2021/12/22 01:50:13;;;;;;;12.45;8.07;;;-0.80;99.90;;;;;;4897033;29;20134;-80
2021/12/22 01:52:39;;;;;;;13.20;8.15;;;-2.20;99.90;;;;;;4906274;29;20079;-79
2021/12/22 01:55:29;;;;;;;18.52;10.25;;;-1.70;99.90;;;;;;4910841;29;20083;-80
2021/12/22 01:57:59;;;;;;;15.35;9.45;;;-0.90;99.90;;;;;;4894445;29;20486;-80
2021/12/22 02:00:24;;;;;;;15.00;9.00;;;-2.20;99.90;;;;;;4879602;29;20060;-80
2021/12/22 02:02:51;;;;;;;15.60;9.73;;;-2.20;99.90;;;;;;4910018;29;20044;-80
2021/12/22 02:05:17;;;;;;;12.80;9.07;;;-2.20;99.90;;;;;;4872293;29;20076;-80
2021/12/22 02:07:43;;;;;;;15.45;9.80;;;-2.80;99.90;;;;;;4925721;29;20043;-80
2021/12/22 02:12:55;;;;;;;12.55;8.90;;;-2.30;99.90;;;;;;4910076;29;20055;-79
2021/12/22 02:15:21;;;;;;;13.45;8.70;;;-1.10;99.90;;;;;;4894553;29;20051;-79
2021/12/22 02:17:48;;;;;;;14.20;8.70;;;-1.60;99.90;;;;;;4904345;29;20100;-79
2021/12/22 02:20:14;;;;;;;13.70;9.20;;;-0.50;99.90;;;;;;4893598;29;20071;-80
2021/12/22 02:22:43;;;;;;;15.80;9.43;;;-2.30;99.90;;;;;;4909356;29;20123;-79
2021/12/22 02:25:18;;;;;;;17.08;9.05;;;-0.90;99.90;;;;;;4909411;29;20585;-80
2021/12/22 02:27:50;;;;;;;15.55;9.93;;;-2.40;99.90;;;;;;4903368;29;20083;-80
2021/12/22 02:30:25;;;;;;;15.75;10.05;;;-2.40;99.90;;;;;;4891884;29;20059;-79
2021/12/22 02:35:25;;;;;;;14.73;9.60;;;-1.60;99.90;;;;;;4909177;29;20332;-80
2021/12/22 02:37:51;;;;;;;18.13;10.25;;;-1.90;99.90;;;;;;4909978;29;20139;-79
2021/12/22 02:40:24;;;;;;;13.10;9.00;;;-0.90;99.90;;;;;;4908918;29;20051;-79
2021/12/22 02:42:53;;;;;;;14.82;9.15;;;-1.30;99.90;;;;;;4905062;29;20215;-79
2021/12/22 02:45:21;;;;;;;15.38;9.07;;;-2.50;99.90;;;;;;4894105;29;20846;-79
2021/12/22 02:47:47;;;;;;;14.95;9.20;;;-2.50;99.90;;;;;;4890757;29;20055;-79
2021/12/22 02:50:15;;;;;;;15.02;8.75;;;-0.90;99.90;;;;;;4905856;29;20862;-80
2021/12/22 02:53:00;;;;;;;18.52;9.48;;;-1.40;99.90;;;;;;4909691;29;20126;-79
2021/12/22 02:55:31;;;;;;;14.88;9.45;;;-2.50;99.90;;;;;;4894060;29;20059;-79
2021/12/22 02:58:01;;;;;;;12.75;9.02;;;-2.60;99.90;;;;;;4893783;29;20048;-80
2021/12/22 03:05:23;;;;;;;14.45;9.30;;;-1.00;99.90;;;;;;4907588;29;20071;-79
2021/12/22 03:07:49;;;;;;;14.32;9.15;;;-1.50;99.90;;;;;;4893367;29;20099;-80
2021/12/22 03:10:17;;;;;;;15.00;9.77;;;-1.50;99.90;;;;;;4909106;29;20605;-80
2021/12/22 03:12:46;;;;;;;17.63;10.57;;;-2.60;99.90;;;;;;4909036;29;20162;-79
2021/12/22 03:15:12;;;;;;;17.60;10.82;;;-2.50;99.90;;;;;;4908960;29;20062;-79
2021/12/22 03:17:38;;;;;;;16.42;9.93;;;-1.40;99.90;;;;;;4908530;29;20136;-79
2021/12/22 03:20:06;;;;;;;14.55;10.13;;;-2.70;99.90;;;;;;4910459;29;20083;-80
2021/12/22 03:22:32;;;;;;;12.73;9.48;;;-2.60;99.90;;;;;;4908097;29;20071;-79
2021/12/22 03:24:58;;;;;;;17.85;10.77;;;-1.00;99.90;;;;;;4894638;29;20453;-79
2021/12/22 03:27:24;;;;;;;14.25;10.20;;;-2.60;99.90;;;;;;4909564;29;20885;-80
2021/12/22 03:29:51;;;;;;;16.60;10.27;;;-1.70;99.90;;;;;;4910611;29;20371;-80
2021/12/22 03:32:17;;;;;;;16.70;10.00;;;-2.70;99.90;;;;;;4906679;29;20561;-80
2021/12/22 03:34:43;;;;;;;13.68;9.68;;;-1.10;99.90;;;;;;4909098;29;20056;-79
2021/12/22 03:37:10;;;;;;;15.77;10.13;;;-2.10;99.90;;;;;;4908902;29;20139;-80
2021/12/22 03:39:36;;;;;;;14.38;8.77;;;-0.90;99.90;;;;;;4907497;29;20067;-80
2021/12/22 03:42:05;;;;;;;15.20;9.60;;;-2.70;99.90;;;;;;4908374;29;20040;-80
2021/12/22 03:44:31;;;;;;;14.70;10.13;;;-2.70;99.90;;;;;;4891818;29;20055;-80
2021/12/22 03:46:59;;;;;;;14.35;10.18;;;-2.70;99.90;;;;;;4893499;29;20118;-80
2021/12/22 03:49:25;;;;;;;18.45;10.23;;;-1.10;99.90;;;;;;4893194;29;20098;-80
2021/12/22 03:51:51;;;;;;;17.90;11.05;;;-2.70;99.90;;;;;;4893224;29;20131;-80
2021/12/22 03:54:17;;;;;;;17.45;11.38;;;-2.00;99.90;;;;;;4924239;29;20131;-80
2021/12/22 03:56:43;;;;;;;20.25;12.73;;;-2.70;99.90;;;;;;4909073;29;20052;-79
2021/12/22 03:59:09;;;;;;;16.73;10.85;;;-2.50;99.90;;;;;;4884393;29;20048;-79
2021/12/22 04:01:35;;;;;;;18.02;11.50;;;-2.70;99.90;;;;;;4906873;29;20079;-78
2021/12/22 04:04:07;;;;;;;17.67;11.45;;;-1.50;99.90;;;;;;4908106;29;20091;-80
2021/12/22 04:06:33;;;;;;;20.25;12.10;;;-1.30;99.90;;;;;;4892499;29;20083;-78
2021/12/22 04:08:59;;;;;;;23.65;11.77;;;-2.70;99.90;;;;;;4908658;29;20086;-78
2021/12/22 04:11:25;;;;;;;19.58;11.68;;;-1.40;99.90;;;;;;4891903;29;20127;-78
2021/12/22 04:13:50;;;;;;;16.52;11.40;;;-1.50;99.90;;;;;;4908411;29;20048;-78
2021/12/22 04:16:16;;;;;;;17.42;11.07;;;-2.80;99.90;;;;;;4908487;29;20104;-81
2021/12/22 04:18:42;;;;;;;17.95;11.80;;;-1.40;99.90;;;;;;4892665;29;20048;-78
2021/12/22 04:21:08;;;;;;;18.17;11.40;;;-1.30;99.90;;;;;;4924026;29;20068;-78
2021/12/22 04:23:33;;;;;;;17.90;11.13;;;-2.80;99.90;;;;;;4911491;29;20083;-78
2021/12/22 04:25:59;;;;;;;21.50;12.75;;;-2.00;99.90;;;;;;4912248;29;20058;-78
2021/12/22 04:28:25;;;;;;;22.90;13.15;;;-1.20;99.90;;;;;;4895477;29;20047;-78
2021/12/22 04:30:51;;;;;;;21.08;11.95;;;-2.50;99.90;;;;;;4911668;29;20103;-78
2021/12/22 04:33:19;;;;;;;23.17;12.43;;;-1.90;99.90;;;;;;4875290;29;20124;-79
2021/12/22 04:35:46;;;;;;;23.38;13.43;;;-1.20;99.90;;;;;;4927696;29;20052;-77
2021/12/22 04:38:12;;;;;;;21.73;11.65;;;-2.40;99.90;;;;;;4911262;29;20044;-78
2021/12/22 04:40:38;;;;;;;18.27;11.90;;;-2.80;99.90;;;;;;4895533;29;20422;-78
2021/12/22 04:43:04;;;;;;;19.33;11.95;;;-2.40;99.90;;;;;;4911090;29;20183;-78
2021/12/22 04:45:31;;;;;;;19.83;12.15;;;-2.70;99.90;;;;;;4912319;29;20052;-78
2021/12/22 04:47:57;;;;;;;19.13;11.50;;;-2.70;99.90;;;;;;4911823;29;20040;-78
2021/12/22 04:50:24;;;;;;;19.95;11.77;;;-2.20;99.90;;;;;;4896058;29;20188;-79
2021/12/22 04:53:01;;;;;;;21.13;11.52;;;-1.00;99.90;;;;;;4926696;29;20056;-78
2021/12/22 04:55:28;;;;;;;21.17;12.52;;;-1.60;99.90;;;;;;4912817;29;20461;-78
2021/12/22 04:57:58;;;;;;;18.02;11.50;;;-2.80;99.90;;;;;;4914015;29;20695;-77
2021/12/22 05:00:26;;;;;;;19.55;11.82;;;-2.70;99.90;;;;;;4888990;29;20055;-78
2021/12/22 05:02:53;;;;;;;19.05;12.07;;;-2.80;99.90;;;;;;4913016;29;20075;-77
2021/12/22 05:05:20;;;;;;;19.90;11.95;;;-2.80;99.90;;;;;;4913953;29;20085;-77
2021/12/22 05:07:47;;;;;;;17.90;11.13;;;-2.80;99.90;;;;;;4912924;29;20548;-78
2021/12/22 05:10:15;;;;;;;20.88;12.35;;;-1.00;99.90;;;;;;4893590;29;20138;-78
2021/12/22 05:12:42;;;;;;;16.75;12.35;;;-1.00;99.90;;;;;;4906738;29;20064;-77
2021/12/22 05:15:08;;;;;;;19.35;12.48;;;-2.80;99.90;;;;;;4914022;29;20084;-78
2021/12/22 05:20:11;;;;;;;17.08;11.30;;;-1.60;99.90;;;;;;4927359;29;20720;-79
2021/12/22 05:22:37;;;;;;;20.05;12.02;;;-2.80;99.90;;;;;;4893176;29;20113;-79
2021/12/22 05:25:08;;;;;;;20.05;11.82;;;-2.80;99.90;;;;;;4895380;29;20044;-80
2021/12/22 05:27:34;;;;;;;18.42;12.10;;;-2.80;99.90;;;;;;4909327;29;20135;-79
2021/12/22 05:30:00;;;;;;;21.25;11.75;;;-2.80;99.90;;;;;;4910788;29;20087;-80
2021/12/22 05:32:31;;;;;;;17.92;11.80;;;-2.50;99.90;;;;;;4909992;29;20048;-79
2021/12/22 05:34:58;;;;;;;21.58;12.15;;;-2.80;99.90;;;;;;4910993;29;20055;-77
2021/12/22 05:37:23;;;;;;;21.50;12.60;;;-2.80;99.90;;;;;;4895637;29;20465;-77
2021/12/22 05:39:49;;;;;;;20.38;12.75;;;-2.90;99.90;;;;;;4925723;29;20083;-77
2021/12/22 05:42:15;;;;;;;20.38;12.13;;;-1.90;99.90;;;;;;4911245;29;20370;-78
2021/12/22 05:44:42;;;;;;;22.35;11.32;;;-1.80;99.90;;;;;;4894867;29;20087;-78
2021/12/22 05:47:08;;;;;;;19.70;12.10;;;-1.70;99.90;;;;;;4926125;29;20148;-77
2021/12/22 05:49:34;;;;;;;24.75;12.05;;;-3.00;99.90;;;;;;4909970;29;20702;-77
2021/12/22 05:52:00;;;;;;;18.90;11.15;;;-3.00;99.90;;;;;;4892527;29;20112;-78
2021/12/22 05:54:25;;;;;;;18.38;10.82;;;-2.50;99.90;;;;;;4894828;29;20048;-77
2021/12/22 05:56:51;;;;;;;18.75;11.00;;;-3.00;99.90;;;;;;4908530;29;20084;-78
2021/12/22 05:59:17;;;;;;;21.45;11.82;;;-2.20;99.90;;;;;;4893930;29;20482;-79
2021/12/22 06:01:45;;;;;;;21.23;11.27;;;-2.40;99.90;;;;;;4874792;29;20048;-79
2021/12/22 06:04:11;;;;;;;21.20;11.52;;;-3.10;99.90;;;;;;4904558;29;20052;-80
2021/12/22 06:06:37;;;;;;;18.80;10.43;;;-3.20;99.90;;;;;;4909460;29;20063;-78
2021/12/22 06:09:03;;;;;;;18.50;11.30;;;-3.00;99.90;;;;;;4909805;29;20931;-79
2021/12/22 06:11:30;;;;;;;19.50;11.68;;;-2.50;99.90;;;;;;4909723;29;20044;-80
2021/12/22 06:13:57;;;;;;;21.05;11.10;;;-3.30;99.90;;;;;;4925202;29;20075;-79
2021/12/22 06:16:23;;;;;;;19.20;10.73;;;-1.90;99.90;;;;;;4895246;29;20048;-78
2021/12/22 06:18:57;;;;;;;19.17;10.80;;;-4.40;99.90;;;;;;4908442;29;20269;-77
2021/12/22 06:21:23;;;;;;;23.40;12.77;;;-4.40;99.90;;;;;;4892422;29;20418;-78
2021/12/22 06:23:49;;;;;;;22.75;12.10;;;-3.20;99.90;;;;;;4909003;29;20060;-79
2021/12/22 06:26:15;;;;;;;20.13;11.88;;;-1.80;99.90;;;;;;4895767;29;20155;-78
2021/12/22 06:28:41;;;;;;;21.27;11.60;;;-3.20;99.90;;;;;;4911648;29;20070;-79
2021/12/22 06:31:06;;;;;;;19.48;12.32;;;-2.70;99.90;;;;;;4893517;29;20482;-80
2021/12/22 06:33:33;;;;;;;21.13;11.80;;;-1.80;99.90;;;;;;4894319;29;20092;-79
2021/12/22 06:35:59;;;;;;;22.17;11.68;;;-3.30;99.90;;;;;;4925645;29;20407;-79
2021/12/22 06:38:25;;;;;;;20.63;11.60;;;-1.80;99.90;;;;;;4909759;29;20051;-79
2021/12/22 06:40:51;;;;;;;22.83;11.80;;;-1.60;99.90;;;;;;4908884;29;20963;-79
2021/12/22 06:43:17;;;;;;;21.15;12.45;;;-3.30;99.90;;;;;;4909477;29;20086;-79
2021/12/22 06:45:43;;;;;;;21.38;12.52;;;-1.70;99.90;;;;;;4909628;29;20052;-79
2021/12/22 06:48:09;;;;;;;21.38;12.43;;;-3.30;99.90;;;;;;4910793;29;20056;-79
2021/12/22 06:50:35;;;;;;;23.35;11.95;;;-3.30;99.90;;;;;;4910949;29;20119;-80
2021/12/22 06:53:01;;;;;;;20.02;12.02;;;-2.20;99.90;;;;;;4894632;29;20169;-78
2021/12/22 06:55:27;;;;;;;21.70;12.68;;;-1.80;99.90;;;;;;4911864;29;20460;-79
2021/12/22 06:57:53;;;;;;;20.75;11.52;;;-1.90;99.90;;;;;;4887758;29;20087;-79
2021/12/22 07:00:19;;;;;;;25.58;11.93;;;-3.30;99.90;;;;;;4910834;29;20055;-79
2021/12/22 07:02:45;;;;;;;24.08;12.45;;;-3.30;99.90;;;;;;4893035;29;20055;-79
2021/12/22 07:05:12;;;;;;;21.15;12.18;;;-3.30;99.90;;;;;;4894542;29;20036;-79
2021/12/22 07:07:39;;;;;;;17.98;10.15;;;-3.30;99.90;;;;;;4908679;29;20057;-80
2021/12/22 07:10:07;;;;;;;18.40;10.82;;;-3.40;99.90;;;;;;4911281;29;20048;-83
2021/12/22 07:12:39;;;;;;;22.05;11.52;;;-3.40;99.90;;;;;;4927448;29;20040;-79
2021/12/22 07:15:05;;;;;;;20.92;11.60;;;-2.60;99.90;;;;;;4904542;29;20063;-79
2021/12/22 07:17:31;;;;;;;18.38;11.57;;;-3.40;99.90;;;;;;4912580;29;20062;-79
2021/12/22 07:19:57;;;;;;;18.23;11.30;;;-3.40;99.90;;;;;;4911853;29;20256;-79
2021/12/22 07:22:23;;;;;;;22.15;11.27;;;-2.10;99.90;;;;;;4911383;29;20509;-79
2021/12/22 07:24:49;;;;;;;19.23;11.55;;;-3.40;99.90;;;;;;4895696;29;20052;-79
2021/12/22 07:27:14;;;;;;;16.42;10.68;;;-3.50;99.90;;;;;;4895092;29;20123;-79
2021/12/22 07:29:41;;;;;;;17.05;10.70;;;;;;;;;;4895620;29;20056;-80
2021/12/22 07:32:08;;;;;;;52.92;13.82;;;-3.40;99.90;;;;;;4894915;29;20052;-79
2021/12/22 07:34:36;;;;;;;22.92;11.65;;;-3.40;99.90;;;;;;4911765;29;20481;-79
2021/12/22 07:37:33;;;;;;;18.77;10.57;;;-3.40;99.90;;;;;;4910903;29;20868;-84
2021/12/22 07:39:59;;;;;;;17.40;10.70;;;-3.40;99.90;;;;;;4911471;29;20055;-82
2021/12/22 07:42:24;;;;;;;18.38;11.07;;;-3.20;99.90;;;;;;4895464;29;20044;-81
2021/12/22 07:44:50;;;;;;;17.58;10.40;;;-2.30;99.90;;;;;;4894071;29;20051;-80
2021/12/22 07:47:16;;;;;;;17.65;10.80;;;-2.10;99.90;;;;;;4910881;29;20091;-80
2021/12/22 07:49:42;;;;;;;20.73;11.85;;;-3.50;99.90;;;;;;4910030;29;20158;-78
2021/12/22 07:52:08;;;;;;;20.95;11.90;;;-3.50;99.90;;;;;;4894937;29;20044;-79
2021/12/22 07:54:34;;;;;;;20.58;11.90;;;-2.50;99.90;;;;;;4895327;29;20130;-80
2021/12/22 07:57:00;;;;;;;23.92;12.00;;;-2.10;99.90;;;;;;4911569;29;20075;-79
2021/12/22 07:59:26;;;;;;;17.73;11.38;;;-2.10;99.90;;;;;;4915797;29;20056;-80
2021/12/22 08:01:52;;;;;;;21.65;10.90;;;-3.50;99.90;;;;;;4897727;29;20179;-80
2021/12/22 08:04:18;;;;;;;21.13;11.48;;;-2.40;99.90;;;;;;4908176;29;20063;-80
2021/12/22 08:06:43;;;;;;;22.70;11.88;;;-3.60;99.90;;;;;;4898315;29;20055;-79
2021/12/22 08:09:09;;;;;;;22.88;12.38;;;-3.50;99.90;;;;;;4898064;29;20403;-79
2021/12/22 08:11:35;;;;;;;21.92;11.48;;;-3.50;99.90;;;;;;4892038;29;20648;-81
2021/12/22 08:14:01;;;;;;;19.77;11.55;;;-2.00;99.90;;;;;;4913343;29;20056;-80
2021/12/22 08:16:26;;;;;;;17.48;10.98;;;-3.50;99.90;;;;;;4895884;29;20051;-82
2021/12/22 08:18:52;;;;;;;22.63;12.73;;;-3.50;99.90;;;;;;4911878;29;20442;-82
2021/12/22 08:21:18;;;;;;;20.30;12.57;;;-1.90;99.90;;;;;;4896584;29;20091;-81
2021/12/22 08:23:44;;;;;;;20.17;11.98;;;-2.90;99.90;;;;;;4911532;29;20102;-82
2021/12/22 08:26:09;;;;;;;21.85;12.35;;;-2.10;99.90;;;;;;4897392;29;20052;-82
2021/12/22 08:28:35;;;;;;;18.27;11.52;;;-3.40;99.90;;;;;;4913857;29;20048;-81
2021/12/22 08:31:01;;;;;;;19.48;11.35;;;-3.40;99.90;;;;;;4911472;29;20044;-82
2021/12/22 08:33:30;;;;;;;19.60;11.43;;;-3.40;99.90;;;;;;4905443;29;20135;-82
2021/12/22 08:38:50;;;;;;;20.33;10.88;;;-3.30;99.90;;;;;;4911678;29;20075;-82
2021/12/22 08:41:27;;;;;;;19.40;11.95;;;-3.40;99.90;;;;;;4911529;29;20056;-83
2021/12/22 08:43:55;;;;;;;22.38;11.23;;;-2.30;99.90;;;;;;4890974;29;20454;-82
2021/12/22 08:46:22;;;;;;;20.67;11.50;;;-1.70;99.90;;;;;;4895531;29;20063;-81
2021/12/22 08:48:48;;;;;;;22.58;11.80;;;-3.00;99.90;;;;;;4910164;29;20048;-79
2021/12/22 08:51:14;;;;;;;21.52;11.85;;;-1.10;99.90;;;;;;4909792;29;20047;-79
2021/12/22 08:53:41;;;;;;;21.17;12.07;;;-2.80;99.90;;;;;;4911497;29;20068;-79
2021/12/22 08:56:07;;;;;;;20.65;11.65;;;-2.70;99.90;;;;;;4894867;29;20100;-81
2021/12/22 08:58:34;;;;;;;21.13;12.57;;;-2.70;99.90;;;;;;4909677;29;20051;-79
2021/12/22 09:01:00;;;;;;;19.88;11.23;;;-1.50;99.90;;;;;;4925742;29;20096;-79
2021/12/22 09:03:26;;;;;;;19.83;11.63;;;-2.60;99.90;;;;;;4895525;29;20079;-78
2021/12/22 09:05:52;;;;;;;19.92;11.68;;;-2.60;99.90;;;;;;4910374;29;20051;-77
2021/12/22 09:08:18;;;;;;;21.10;12.55;;;-2.50;99.90;;;;;;4910502;29;20494;-78
2021/12/22 09:10:44;;;;;;;19.75;11.32;;;-1.80;99.90;;;;;;4870992;29;20098;-78
2021/12/22 09:13:12;;;;;;;19.80;11.98;;;-2.40;99.90;;;;;;4909634;29;20094;-78
2021/12/22 09:15:38;;;;;;;21.77;12.10;;;-2.40;99.90;;;;;;4927185;29;20510;-78
2021/12/22 09:18:03;;;;;;;24.63;12.43;;;-1.80;99.90;;;;;;4910960;29;20087;-78
2021/12/22 09:20:29;;;;;;;25.23;13.55;;;-2.30;99.90;;;;;;4910898;29;20490;-80
2021/12/22 09:22:55;;;;;;;18.52;11.90;;;-2.30;99.90;;;;;;4909769;29;20056;-78
2021/12/22 09:25:21;;;;;;;22.63;12.63;;;-1.20;99.90;;;;;;4910433;29;20545;-78
2021/12/22 09:27:47;;;;;;;25.70;13.10;;;-1.10;99.90;;;;;;4926389;29;20052;-79
2021/12/22 09:30:13;;;;;;;19.85;12.40;;;-1.20;99.90;;;;;;4910202;29;20040;-78
2021/12/22 09:32:39;;;;;;;22.80;12.75;;;-1.90;99.90;;;;;;4894133;29;20082;-78
2021/12/22 09:35:05;;;;;;;24.15;13.32;;;-1.40;99.90;;;;;;4909830;29;20187;-78
2021/12/22 09:37:31;;;;;;;20.85;12.18;;;-1.30;99.90;;;;;;4909307;29;20513;-79
2021/12/22 09:39:57;;;;;;;24.02;12.57;;;-1.20;99.90;;;;;;4911265;29;20509;-76
2021/12/22 09:42:23;;;;;;;20.50;12.65;;;-1.10;99.90;;;;;;4910604;29;20083;-78
2021/12/22 09:44:50;;;;;;;21.65;13.15;;;0.30;99.90;;;;;;4911427;29;20052;-79
2021/12/22 09:47:26;;;;;;;24.70;13.43;;;-1.00;99.90;;;;;;4910947;29;20060;-78
2021/12/22 09:50:12;;;;;;;22.75;12.05;;;-0.40;99.90;;;;;;4927625;29;20070;-78
2021/12/22 09:52:38;;;;;;;19.83;12.23;;;-1.20;99.90;;;;;;4897526;29;20138;-79
2021/12/22 09:55:07;;;;;;;24.33;13.50;;;-0.80;99.90;;;;;;4911885;29;20507;-79
2021/12/22 09:57:34;;;;;;;21.35;12.43;;;-1.20;99.90;;;;;;4912884;29;20502;-79
2021/12/22 10:00:00;;;;;;;22.42;11.95;;;-0.60;99.90;;;;;;4892058;29;20056;-80
2021/12/22 10:02:29;;;;;;;20.30;12.50;;;-0.90;99.90;;;;;;4912190;29;20079;-79
2021/12/22 10:04:59;;;;;;;22.52;12.95;;;0.00;99.90;;;;;;4911346;29;20060;-80
2021/12/22 10:07:29;;;;;;;23.98;12.98;;;-0.40;99.90;;;;;;4912015;29;20502;-80
2021/12/22 10:10:02;;;;;;;20.75;13.13;;;0.00;99.90;;;;;;4911515;29;20055;-79
2021/12/22 10:12:28;;;;;;;25.90;14.13;;;-0.80;99.90;;;;;;4911329;29;20512;-79
2021/12/22 10:14:57;;;;;;;21.98;13.25;;;-0.80;99.90;;;;;;4888028;29;20052;-80
2021/12/22 10:17:32;;;;;;;21.23;12.65;;;0.60;99.90;;;;;;4910952;29;20051;-80
2021/12/22 10:19:59;;;;;;;20.85;12.55;;;0.60;99.90;;;;;;4918417;29;20498;-79
2021/12/22 10:22:30;;;;;;;20.17;12.18;;;0.70;99.90;;;;;;4888028;29;20691;-79
2021/12/22 10:25:08;;;;;;;20.35;12.63;;;0.50;99.90;;;;;;4896769;29;20562;-80
2021/12/22 10:27:34;;;;;;;26.38;13.65;;;-0.70;99.90;;;;;;4928411;29;20044;-79
2021/12/22 10:30:20;;;;;;;26.65;13.55;;;-0.80;99.90;;;;;;4926982;29;20048;-79
2021/12/22 10:32:46;;;;;;;21.13;12.37;;;-0.70;99.90;;;;;;4926847;29;20104;-79
2021/12/22 10:35:12;;;;;;;21.83;13.52;;;0.00;99.90;;;;;;4895602;29;20296;-79
2021/12/22 10:37:44;;;;;;;20.10;12.20;;;0.20;99.90;;;;;;4908304;29;20055;-80
2021/12/22 10:40:34;;;;;;;20.13;12.88;;;-0.40;99.90;;;;;;4895445;29;20052;-79
2021/12/22 10:43:01;;;;;;;21.98;12.93;;;-0.30;99.90;;;;;;4909688;29;20116;-80
2021/12/22 10:45:29;;;;;;;21.08;12.13;;;0.60;99.90;;;;;;4897101;29;20052;-80
2021/12/22 10:50:45;;;;;;;21.55;12.35;;;0.00;99.90;;;;;;4904810;29;20060;-79
2021/12/22 10:53:14;;;;;;;22.38;12.40;;;0.10;99.90;;;;;;4908278;29;20313;-79
2021/12/22 10:55:46;;;;;;;19.83;12.95;;;1.50;99.90;;;;;;4909010;29;20093;-78
2021/12/22 10:58:17;;;;;;;24.60;12.95;;;1.30;99.90;;;;;;4910651;29;20123;-78
2021/12/22 11:00:44;;;;;;;20.30;12.20;;;-0.10;99.90;;;;;;4910662;29;20055;-79
2021/12/22 11:03:15;;;;;;;18.48;11.93;;;0.00;99.90;;;;;;4910047;29;20063;-78
2021/12/22 11:05:45;;;;;;;20.35;12.48;;;0.00;99.90;;;;;;4912330;29;20047;-79
2021/12/22 11:08:37;;;;;;;22.48;12.77;;;0.10;99.90;;;;;;4910791;29;20058;-80
2021/12/22 11:11:14;;;;;;;23.00;13.35;;;1.20;99.90;;;;;;4890482;29;20082;-81
2021/12/22 11:13:40;;;;;;;20.85;13.02;;;0.30;99.90;;;;;;4906922;29;20048;-80
2021/12/22 11:16:14;;;;;;;21.23;12.15;;;1.00;99.90;;;;;;4911075;29;20055;-79
2021/12/22 11:18:40;;;;;;;21.63;12.77;;;0.30;99.90;;;;;;4895533;29;20048;-81
2021/12/22 11:21:07;;;;;;;23.50;13.70;;;0.60;99.90;;;;;;4871142;29;20106;-81
2021/12/22 11:23:35;;;;;;;21.85;12.73;;;1.30;99.90;;;;;;4894173;29;20067;-81
2021/12/22 11:26:01;;;;;;;19.30;12.02;;;0.50;99.90;;;;;;4910340;29;20573;-80
2021/12/22 11:28:28;;;;;;;22.33;13.00;;;1.60;99.90;;;;;;4911158;29;20063;-80
2021/12/22 11:30:54;;;;;;;24.13;13.10;;;0.10;99.90;;;;;;4890843;29;20059;-82
2021/12/22 11:33:20;;;;;;;22.25;12.98;;;0.20;99.90;;;;;;4909097;29;20048;-82
2021/12/22 11:35:50;;;;;;;20.92;12.05;;;1.00;99.90;;;;;;4905172;29;20059;-82
2021/12/22 11:38:16;;;;;;;22.30;13.35;;;0.30;99.90;;;;;;4909686;29;20056;-79
2021/12/22 11:40:51;;;;;;;22.83;13.30;;;0.30;99.90;;;;;;4909718;29;20494;-78
2021/12/22 11:43:17;;;;;;;19.83;12.82;;;0.30;99.90;;;;;;4923171;29;20159;-82
2021/12/22 11:45:45;;;;;;;20.25;13.23;;;-0.40;99.90;;;;;;4890805;29;20130;-82
2021/12/22 11:48:11;;;;;;;22.35;13.57;;;0.90;99.90;;;;;;4891905;29;20476;-83
2021/12/22 11:50:37;;;;;;;23.88;12.85;;;0.20;99.90;;;;;;4887843;29;20064;-82
2021/12/22 11:53:08;;;;;;;21.92;13.55;;;0.30;99.90;;;;;;4906047;29;20047;-83
2021/12/22 11:55:45;;;;;;;24.27;13.95;;;0.30;99.90;;;;;;4907705;29;20067;-83
2021/12/22 11:58:13;;;;;;;24.83;14.32;;;0.30;99.90;;;;;;4887863;29;20052;-77
2021/12/22 12:00:42;;;;;;;22.13;13.73;;;0.70;99.90;;;;;;4909999;29;20052;-81
2021/12/22 12:03:34;;;;;;;24.83;14.35;;;1.10;99.90;;;;;;4908152;29;20075;-81
2021/12/22 12:06:12;;;;;;;23.38;14.05;;;0.20;99.90;;;;;;4917999;29;20147;-82
2021/12/22 12:08:47;;;;;;;22.85;14.85;;;0.20;99.90;;;;;;4908387;29;20054;-81
2021/12/22 12:11:21;;;;;;;23.65;14.70;;;0.20;99.90;;;;;;4907174;29;20139;-81
2021/12/22 12:21:55;;;;;;;27.40;14.60;;;0.20;99.90;;;;;;4910459;29;20055;-79
2021/12/22 12:24:30;;;;;;;26.40;14.85;;;1.70;99.90;;;;;;4910165;29;20100;-78
2021/12/22 12:26:57;;;;;;;20.33;13.13;;;0.20;99.90;;;;;;4910637;29;20059;-78
2021/12/22 12:30:01;;;;;;;24.17;14.57;;;1.00;99.90;;;;;;4909445;29;20160;-78
2021/12/22 12:32:39;;;;;;;23.08;14.25;;;0.20;99.90;;;;;;4910433;29;20044;-78
2021/12/22 12:38:12;;;;;;;22.42;12.85;;;0.80;99.90;;;;;;4910781;29;20135;-78
2021/12/22 12:41:00;;;;;;;23.98;14.63;;;0.10;99.90;;;;;;4894621;29;20059;-78
2021/12/22 12:43:45;;;;;;;22.08;14.25;;;0.40;99.90;;;;;;4911342;29;20055;-78
2021/12/22 12:46:39;;;;;;;25.42;14.38;;;1.60;99.90;;;;;;4897164;29;20470;-78
2021/12/22 12:49:14;;;;;;;20.92;13.55;;;0.10;99.90;;;;;;4906337;29;20047;-79
2021/12/22 12:51:42;;;;;;;22.88;13.70;;;0.20;99.90;;;;;;4914580;29;20123;-79
2021/12/22 12:54:39;;;;;;;25.88;13.88;;;0.20;99.90;;;;;;4895510;29;20410;-79
2021/12/22 12:57:14;;;;;;;21.65;14.38;;;0.20;99.90;;;;;;4912936;29;20064;-77
2021/12/22 12:59:42;;;;;;;28.13;14.55;;;0.10;99.90;;;;;;4913451;29;20044;-78
2021/12/22 13:02:18;;;;;;;26.65;14.95;;;0.10;99.90;;;;;;4913079;29;20084;-79
2021/12/22 13:05:15;;;;;;;22.45;14.23;;;0.00;99.90;;;;;;4905979;29;20044;-78
2021/12/22 13:07:42;;;;;;;25.15;15.13;;;0.00;99.90;;;;;;4913357;29;20398;-79
2021/12/22 13:10:15;;;;;;;23.80;15.27;;;1.00;99.90;;;;;;4927568;29;20055;-78
2021/12/22 13:18:00;;;;;;;24.02;14.30;;;0.00;99.90;;;;;;4913600;29;20103;-78
2021/12/22 13:20:29;;;;;;;22.38;13.98;;;0.40;99.90;;;;;;4912310;29;20043;-79